Plattsburgh, New York
Current Conditions -  °F | °C
As of 10:53 AM on Friday 31 Oct 2014 (Local Time) from KPBG Reporting Station
Clear Clear  
Wind Chill: 39°   Ceiling: Unl
Heat Index: 43°   Visibility: 10mi
Dew Point: 31°   Wind: 7mph
Humidity: 62%   Direction: 40°NE
Pressure: 30.06"   Gusts: NA
Location:  44.7°N, 73.45°W
Report Text: KPBG 311453Z AUTO 04006KT 10SM CLR 06/M01 A3006 RMK AO2 SLP182 T00611006 50003
Loading
Personal Weather Stations






























Interactive Weather Map
Tropical Storm Tracking
New forecast layout! Learn more

10-Day Weather Forecast

Advertisements
Track Severe Weather on mobile